createdAt,value
2023-04-03T00:00:26.100Z,64.62
2023-04-03T00:01:26.069Z,64.62
2023-04-03T00:02:26.194Z,64.62
2023-04-03T00:03:26.043Z,64.62
2023-04-03T00:04:26.117Z,64.52
2023-04-03T00:05:26.045Z,64.62
2023-04-03T00:06:26.032Z,64.62
2023-04-03T00:07:26.006Z,64.62
2023-04-03T00:08:25.994Z,64.62
2023-04-03T00:09:26.005Z,64.62
2023-04-03T00:10:25.996Z,64.52
2023-04-03T00:11:25.960Z,64.62
2023-04-03T00:12:25.946Z,64.62
2023-04-03T00:13:25.935Z,64.62
2023-04-03T00:14:25.920Z,64.62
2023-04-03T00:15:25.946Z,64.62
2023-04-03T00:16:25.909Z,64.62
2023-04-03T00:17:25.900Z,64.52
2023-04-03T00:18:25.908Z,64.62
2023-04-03T00:19:25.877Z,64.62
2023-04-03T00:20:25.858Z,64.52
2023-04-03T00:21:25.847Z,64.52
2023-04-03T00:22:25.871Z,64.52
2023-04-03T00:23:25.848Z,64.52
2023-04-03T00:24:25.811Z,64.52
2023-04-03T00:25:25.825Z,64.52
2023-04-03T00:26:25.801Z,64.52
2023-04-03T00:27:25.809Z,64.52
2023-04-03T00:28:25.793Z,64.52
2023-04-03T00:29:25.777Z,64.52
2023-04-03T00:30:25.747Z,64.52
2023-04-03T00:31:25.754Z,64.52
2023-04-03T00:32:25.796Z,64.52
2023-04-03T00:33:25.781Z,64.52
2023-04-03T00:34:25.703Z,64.52
2023-04-03T00:35:25.690Z,64.52
2023-04-03T00:36:25.783Z,64.52
2023-04-03T00:37:25.673Z,64.52
2023-04-03T00:38:25.715Z,64.52
2023-04-03T00:39:25.653Z,64.52
2023-04-03T00:40:25.645Z,64.52
2023-04-03T00:41:25.654Z,64.52
2023-04-03T00:42:25.631Z,64.52
2023-04-03T00:43:25.663Z,64.52
2023-04-03T00:44:25.610Z,64.42
2023-04-03T00:45:25.580Z,64.42
2023-04-03T00:46:25.689Z,64.42
2023-04-03T00:47:25.611Z,64.42
2023-04-03T00:48:25.583Z,64.42
2023-04-03T00:49:25.541Z,64.52
2023-04-03T00:50:25.526Z,64.52
2023-04-03T00:51:25.538Z,64.52
2023-04-03T00:52:25.507Z,64.42
2023-04-03T00:53:25.521Z,64.42
2023-04-03T00:54:25.494Z,64.42
2023-04-03T00:55:25.472Z,64.42
2023-04-03T00:56:25.466Z,64.42
2023-04-03T00:57:25.513Z,64.42
2023-04-03T00:58:25.444Z,64.42
2023-04-03T00:59:25.451Z,64.42
2023-04-03T01:00:25.417Z,64.42
2023-04-03T01:01:25.520Z,64.42
2023-04-03T01:02:25.417Z,64.42
2023-04-03T01:03:25.392Z,64.42
2023-04-03T01:04:25.450Z,64.42
2023-04-03T01:05:25.363Z,64.42
2023-04-03T01:06:25.355Z,64.42
2023-04-03T01:07:25.351Z,64.42
2023-04-03T01:08:25.330Z,64.42
2023-04-03T01:09:25.342Z,64.42
2023-04-03T01:10:25.310Z,64.42
2023-04-03T01:11:25.297Z,64.42
2023-04-03T01:12:25.287Z,64.42
2023-04-03T01:13:25.317Z,64.42
2023-04-03T01:14:25.299Z,64.42
2023-04-03T01:15:25.269Z,64.42
2023-04-03T01:16:25.277Z,64.42
2023-04-03T01:17:25.271Z,64.42
2023-04-03T01:18:25.226Z,64.42
2023-04-03T01:19:25.214Z,64.42
2023-04-03T01:20:25.223Z,64.42
2023-04-03T01:21:25.221Z,64.42
2023-04-03T01:22:25.178Z,64.42
2023-04-03T01:23:25.262Z,64.42
2023-04-03T01:24:25.156Z,64.42
2023-04-03T01:25:25.146Z,64.42
2023-04-03T01:26:25.135Z,64.42
2023-04-03T01:27:25.126Z,64.42
2023-04-03T01:28:25.138Z,64.42
2023-04-03T01:29:25.129Z,64.42
2023-04-03T01:30:25.118Z,64.42
2023-04-03T01:31:25.125Z,64.42
2023-04-03T01:32:25.143Z,64.42
2023-04-03T01:33:25.065Z,64.42
2023-04-03T01:34:25.070Z,64.42
2023-04-03T01:35:25.059Z,64.42
2023-04-03T01:36:25.031Z,64.42
2023-04-03T01:37:25.021Z,64.42
2023-04-03T01:38:25.006Z,64.32
2023-04-03T01:39:24.992Z,64.32
2023-04-03T01:40:25.009Z,64.42
2023-04-03T01:41:24.973Z,64.42
2023-04-03T01:42:24.958Z,64.42
2023-04-03T01:43:24.949Z,64.32
2023-04-03T01:44:24.944Z,64.32
2023-04-03T01:45:25.011Z,64.32
2023-04-03T01:46:25.035Z,64.32
2023-04-03T01:47:24.965Z,64.32
2023-04-03T01:48:24.892Z,64.32
2023-04-03T01:49:24.969Z,64.32
2023-04-03T01:50:24.874Z,64.32
2023-04-03T01:51:24.864Z,64.32
2023-04-03T01:52:24.869Z,64.32
2023-04-03T01:53:24.846Z,64.32
2023-04-03T01:54:25.103Z,64.32
2023-04-03T01:55:24.816Z,64.32
2023-04-03T01:56:24.815Z,64.32
2023-04-03T01:57:24.909Z,64.32
2023-04-03T01:58:24.845Z,64.32
2023-04-03T01:59:24.780Z,64.32
2023-04-03T02:00:24.764Z,64.32
2023-04-03T02:01:24.812Z,64.32
2023-04-03T02:02:24.741Z,64.32
2023-04-03T02:03:24.736Z,64.32
2023-04-03T02:04:24.782Z,64.32
2023-04-03T02:05:24.708Z,64.32
2023-04-03T02:06:24.887Z,64.32
2023-04-03T02:07:24.686Z,64.32
2023-04-03T02:08:24.679Z,64.32
2023-04-03T02:09:24.716Z,64.32
2023-04-03T02:10:24.655Z,64.32
2023-04-03T02:11:24.654Z,64.32
2023-04-03T02:12:24.640Z,64.32
2023-04-03T02:13:24.618Z,64.32
2023-04-03T02:14:24.630Z,64.32
2023-04-03T02:15:24.620Z,64.22
2023-04-03T02:16:24.627Z,64.32
2023-04-03T02:17:24.630Z,64.32
2023-04-03T02:18:24.564Z,64.32
2023-04-03T02:19:24.554Z,64.32
2023-04-03T02:20:24.852Z,64.32
2023-04-03T02:21:24.529Z,64.32
2023-04-03T02:22:24.531Z,64.32
2023-04-03T02:23:24.519Z,64.32
2023-04-03T02:24:24.521Z,64.32
2023-04-03T02:25:24.509Z,64.32
2023-04-03T02:26:24.479Z,64.22
2023-04-03T02:27:24.463Z,64.22
2023-04-03T02:28:24.487Z,64.22
2023-04-03T02:29:24.446Z,64.22
2023-04-03T02:30:24.468Z,64.22
2023-04-03T02:31:24.465Z,64.32
2023-04-03T02:32:24.472Z,64.22
2023-04-03T02:33:24.423Z,64.22
2023-04-03T02:34:24.410Z,64.22
2023-04-03T02:35:24.445Z,64.22
2023-04-03T02:36:24.370Z,64.22
2023-04-03T02:37:24.356Z,64.22
2023-04-03T02:38:24.367Z,64.22
2023-04-03T02:39:24.335Z,64.22
2023-04-03T02:40:24.322Z,64.22
2023-04-03T02:41:24.342Z,64.22
2023-04-03T02:42:24.299Z,64.22
2023-04-03T02:43:24.290Z,64.22
2023-04-03T02:44:24.306Z,64.22
2023-04-03T02:45:24.273Z,64.22
2023-04-03T02:46:24.281Z,64.22
2023-04-03T02:47:24.275Z,64.22
2023-04-03T02:48:24.260Z,64.22
2023-04-03T02:49:24.261Z,64.22
2023-04-03T02:50:24.238Z,64.22
2023-04-03T02:51:24.211Z,64.22
2023-04-03T02:52:24.204Z,64.22
2023-04-03T02:53:24.212Z,64.22
2023-04-03T02:54:24.176Z,64.22
2023-04-03T02:55:24.171Z,64.22
2023-04-03T02:56:24.170Z,64.22
2023-04-03T02:57:24.178Z,64.22
2023-04-03T02:58:24.167Z,64.22
2023-04-03T02:59:24.121Z,64.22
2023-04-03T03:00:24.119Z,64.22
2023-04-03T03:01:24.135Z,64.22
2023-04-03T03:02:24.201Z,64.22
2023-04-03T03:03:24.143Z,64.22
2023-04-03T03:04:24.086Z,64.12
2023-04-03T03:05:24.120Z,64.12
2023-04-03T03:06:24.050Z,64.12
2023-04-03T03:07:24.056Z,64.12
2023-04-03T03:08:24.026Z,64.12
2023-04-03T03:09:24.013Z,64.22
2023-04-03T03:10:24.012Z,64.12
2023-04-03T03:11:24.024Z,64.12
2023-04-03T03:12:24.010Z,64.12
2023-04-03T03:13:23.999Z,64.12
2023-04-03T03:14:23.987Z,64.12
2023-04-03T03:15:23.948Z,64.12
2023-04-03T03:16:24.097Z,64.12
2023-04-03T03:17:23.957Z,64.22
2023-04-03T03:18:23.917Z,64.22
2023-04-03T03:19:23.906Z,64.12
2023-04-03T03:20:23.915Z,64.22
2023-04-03T03:21:23.914Z,64.12
2023-04-03T03:22:23.870Z,64.22
2023-04-03T03:23:23.903Z,64.12
2023-04-03T03:24:23.869Z,64.12
2023-04-03T03:25:23.840Z,64.12
2023-04-03T03:26:23.839Z,64.12
2023-04-03T03:27:23.816Z,64.12
2023-04-03T03:28:23.826Z,64.12
2023-04-03T03:29:23.813Z,64.12
2023-04-03T03:30:23.782Z,64.12
2023-04-03T03:31:23.809Z,64.12
2023-04-03T03:32:23.812Z,64.12
2023-04-03T03:33:23.757Z,64.12
2023-04-03T03:34:23.762Z,64.12
2023-04-03T03:35:23.734Z,64.12
2023-04-03T03:36:23.771Z,64.12
2023-04-03T03:37:23.735Z,64.12
2023-04-03T03:38:23.695Z,64.12
2023-04-03T03:39:23.708Z,64.12
2023-04-03T03:40:23.677Z,64.12
2023-04-03T03:41:23.664Z,64.02
2023-04-03T03:42:23.658Z,64.12
2023-04-03T03:43:23.641Z,64.12
2023-04-03T03:44:23.651Z,64.02
2023-04-03T03:45:23.622Z,64.02
2023-04-03T03:46:23.626Z,64.02
2023-04-03T03:47:23.630Z,64.02
2023-04-03T03:48:23.611Z,64.02
2023-04-03T03:49:23.575Z,64.02
2023-04-03T03:50:23.591Z,64.02
2023-04-03T03:51:23.553Z,64.12
2023-04-03T03:52:23.543Z,64.12
2023-04-03T03:53:23.560Z,64.12
2023-04-03T03:54:23.524Z,64.12
2023-04-03T03:55:23.549Z,64.12
2023-04-03T03:56:23.510Z,64.02
2023-04-03T03:57:23.497Z,64.02
2023-04-03T03:58:23.478Z,64.12
2023-04-03T03:59:23.469Z,64.12
2023-04-03T04:00:23.485Z,64.02
2023-04-03T04:01:23.469Z,64.02
2023-04-03T04:02:23.565Z,64.02
2023-04-03T04:03:23.541Z,64.02
2023-04-03T04:04:23.475Z,64.02
2023-04-03T04:05:23.409Z,64.02
2023-04-03T04:06:23.391Z,64.02
2023-04-03T04:07:23.412Z,64.02
2023-04-03T04:08:23.404Z,64.02
2023-04-03T04:09:23.385Z,64.02
2023-04-03T04:10:23.369Z,64.02
2023-04-03T04:11:23.340Z,64.02
2023-04-03T04:12:23.328Z,64.02
2023-04-03T04:13:23.319Z,64.02
2023-04-03T04:14:23.363Z,64.02
2023-04-03T04:15:23.296Z,64.02
2023-04-03T04:16:23.301Z,64.02
2023-04-03T04:17:23.315Z,64.02
2023-04-03T04:18:23.283Z,64.02
2023-04-03T04:19:23.252Z,64.02
2023-04-03T04:20:23.273Z,64.04
2023-04-03T04:21:23.235Z,63.92
2023-04-03T04:22:23.227Z,63.92
2023-04-03T04:23:23.232Z,63.92
2023-04-03T04:24:23.200Z,63.92
2023-04-03T04:25:23.234Z,64.02
2023-04-03T04:26:23.188Z,63.92
2023-04-03T04:27:23.197Z,63.92
2023-04-03T04:28:23.162Z,63.92
2023-04-03T04:29:23.147Z,64.04
2023-04-03T04:30:23.175Z,63.92
2023-04-03T04:31:23.172Z,63.95
2023-04-03T04:32:23.111Z,63.95
2023-04-03T04:33:23.102Z,63.92
2023-04-03T04:34:23.090Z,64.04
2023-04-03T04:35:23.170Z,63.95
2023-04-03T04:36:23.223Z,63.95
2023-04-03T04:37:23.061Z,63.95
2023-04-03T04:38:23.049Z,63.95
2023-04-03T04:39:23.038Z,63.95
2023-04-03T04:40:23.047Z,63.92
2023-04-03T04:41:23.045Z,63.92
2023-04-03T04:42:23.003Z,63.92
2023-04-03T04:43:22.991Z,63.92
2023-04-03T04:44:22.984Z,63.92
2023-04-03T04:45:23.002Z,63.95
2023-04-03T04:46:23.032Z,63.95
2023-04-03T04:47:22.950Z,63.95
2023-04-03T04:48:22.937Z,63.95
2023-04-03T04:49:22.927Z,63.95
2023-04-03T04:50:22.939Z,63.95
2023-04-03T04:51:22.912Z,63.95
2023-04-03T04:52:22.896Z,63.84
2023-04-03T04:53:22.882Z,63.92
2023-04-03T04:54:22.875Z,63.95
2023-04-03T04:55:22.886Z,63.84
2023-04-03T04:56:22.860Z,63.84
2023-04-03T04:57:22.912Z,63.84
2023-04-03T04:58:22.830Z,63.84
2023-04-03T04:59:22.823Z,63.95
2023-04-03T05:00:22.850Z,63.84
2023-04-03T05:01:22.865Z,63.84
2023-04-03T05:02:22.782Z,63.84
2023-04-03T05:03:22.783Z,63.84
2023-04-03T05:04:22.803Z,63.84
2023-04-03T05:05:22.779Z,63.84
2023-04-03T05:06:22.742Z,63.84
2023-04-03T05:07:22.754Z,63.84
2023-04-03T05:08:22.734Z,63.84
2023-04-03T05:09:22.713Z,63.84
2023-04-03T05:10:22.732Z,63.84
2023-04-03T05:11:22.711Z,63.84
2023-04-03T05:12:22.681Z,63.84
2023-04-03T05:13:22.705Z,63.84
2023-04-03T05:14:22.659Z,63.84
2023-04-03T05:15:22.646Z,63.84
2023-04-03T05:16:22.723Z,63.84
2023-04-03T05:17:22.682Z,63.84
2023-04-03T05:18:22.617Z,63.84
2023-04-03T05:19:22.611Z,63.84
2023-04-03T05:20:22.607Z,63.84
2023-04-03T05:21:22.603Z,63.84
2023-04-03T05:22:22.591Z,63.84
2023-04-03T05:23:22.562Z,63.84
2023-04-03T05:24:22.553Z,63.84
2023-04-03T05:25:22.548Z,63.84
2023-04-03T05:26:22.532Z,63.84
2023-04-03T05:27:22.540Z,63.84
2023-04-03T05:28:22.508Z,63.84
2023-04-03T05:29:22.549Z,63.84
2023-04-03T05:30:22.495Z,63.84
2023-04-03T05:31:22.545Z,63.84
2023-04-03T05:32:22.501Z,63.84
2023-04-03T05:33:22.450Z,63.75
2023-04-03T05:34:22.484Z,63.75
2023-04-03T05:35:22.434Z,63.75
2023-04-03T05:36:22.535Z,63.84
2023-04-03T05:37:22.404Z,63.84
2023-04-03T05:38:22.400Z,63.84
2023-04-03T05:39:22.383Z,63.84
2023-04-03T05:40:22.384Z,63.75
2023-04-03T05:41:22.407Z,63.84
2023-04-03T05:42:22.359Z,63.75
2023-04-03T05:43:22.349Z,63.75
2023-04-03T05:44:22.332Z,63.75
2023-04-03T05:45:22.340Z,63.75
2023-04-03T05:46:22.479Z,63.75
2023-04-03T05:47:22.325Z,63.75
2023-04-03T05:48:22.288Z,63.75
2023-04-03T05:49:22.283Z,63.75
2023-04-03T05:50:22.267Z,63.75
2023-04-03T05:51:22.272Z,63.75
2023-04-03T05:52:22.242Z,63.75
2023-04-03T05:53:22.259Z,63.75
2023-04-03T05:54:22.226Z,63.75
2023-04-03T05:55:22.235Z,63.75
2023-04-03T05:56:22.197Z,63.75
2023-04-03T05:57:22.200Z,63.75
2023-04-03T05:58:22.175Z,63.75
2023-04-03T05:59:22.166Z,63.75
2023-04-03T06:00:22.212Z,63.64
2023-04-03T06:01:22.264Z,63.64
2023-04-03T06:02:22.243Z,63.64
2023-04-03T06:03:22.237Z,63.64
2023-04-03T06:04:22.236Z,63.64
2023-04-03T06:05:22.108Z,63.64
2023-04-03T06:06:22.089Z,63.64
2023-04-03T06:07:22.131Z,63.64
2023-04-03T06:08:22.070Z,63.64
2023-04-03T06:09:22.060Z,63.64
2023-04-03T06:10:22.068Z,63.64
2023-04-03T06:11:22.039Z,63.64
2023-04-03T06:12:22.053Z,63.64
2023-04-03T06:13:22.016Z,63.64
2023-04-03T06:14:22.006Z,63.64
2023-04-03T06:15:22.010Z,63.64
2023-04-03T06:16:22.028Z,63.64
2023-04-03T06:17:22.055Z,63.64
2023-04-03T06:18:21.971Z,63.64
2023-04-03T06:19:21.960Z,63.64
2023-04-03T06:20:21.939Z,63.64
2023-04-03T06:21:21.930Z,63.64
2023-04-03T06:22:21.925Z,63.64
2023-04-03T06:23:21.937Z,63.64
2023-04-03T06:24:21.899Z,63.64
2023-04-03T06:25:21.888Z,63.64
2023-04-03T06:26:21.875Z,63.64
2023-04-03T06:27:21.937Z,63.64
2023-04-03T06:28:21.882Z,63.64
2023-04-03T06:29:21.848Z,63.64
2023-04-03T06:30:21.830Z,63.64
2023-04-03T06:31:21.844Z,63.64
2023-04-03T06:32:21.811Z,63.64
2023-04-03T06:33:21.878Z,63.64
2023-04-03T06:34:21.784Z,63.64
2023-04-03T06:35:21.780Z,63.64
2023-04-03T06:36:21.784Z,63.64
2023-04-03T06:37:21.756Z,63.64
2023-04-03T06:38:21.778Z,63.64
2023-04-03T06:39:21.730Z,63.54
2023-04-03T06:40:21.725Z,63.54
2023-04-03T06:41:21.710Z,63.54
2023-04-03T06:42:21.721Z,63.54
2023-04-03T06:43:24.037Z,63.54
2023-04-03T06:44:21.684Z,63.64
2023-04-03T06:45:21.666Z,63.64
2023-04-03T06:46:21.717Z,63.54
2023-04-03T06:47:21.647Z,63.54
2023-04-03T06:48:21.633Z,63.13
2023-04-03T06:49:21.686Z,63.34
2023-04-03T06:50:21.621Z,63.54
2023-04-03T06:51:21.611Z,63.75
2023-04-03T06:52:21.597Z,63.64
2023-04-03T06:53:21.602Z,63.64
2023-04-03T06:54:21.573Z,63.64
2023-04-03T06:55:21.590Z,63.44
2023-04-03T06:56:21.574Z,63.44
2023-04-03T06:57:21.713Z,63.54
2023-04-03T06:58:22.638Z,63.54
2023-04-03T06:59:21.629Z,63.44
2023-04-03T07:00:21.506Z,63.54
2023-04-03T07:01:21.517Z,63.54
2023-04-03T07:02:21.525Z,63.54
2023-04-03T07:03:21.473Z,63.54
2023-04-03T07:04:21.693Z,63.44
2023-04-03T07:05:21.591Z,63.44
2023-04-03T07:06:21.460Z,63.44
2023-04-03T07:07:21.581Z,63.34
2023-04-03T07:08:21.420Z,63.34
2023-04-03T07:09:21.415Z,63.34
2023-04-03T07:10:21.411Z,63.34
2023-04-03T07:11:21.439Z,63.34
2023-04-03T07:12:21.378Z,63.34
2023-04-03T07:13:21.383Z,63.31
2023-04-03T07:14:21.355Z,63.34
2023-04-03T07:15:21.359Z,63.34
2023-04-03T07:16:21.442Z,63.31
2023-04-03T07:17:23.486Z,63.31
2023-04-03T07:18:21.312Z,63.34
2023-04-03T07:19:21.305Z,63.34
2023-04-03T07:20:21.290Z,63.31
2023-04-03T07:21:21.369Z,63.31
2023-04-03T07:22:21.309Z,63.31
2023-04-03T07:23:21.259Z,63.31
2023-04-03T07:24:21.255Z,63.41
2023-04-03T07:25:21.244Z,63.41
2023-04-03T07:26:21.279Z,63.31
2023-04-03T07:27:21.234Z,63.31
2023-04-03T07:28:21.207Z,63.31
2023-04-03T07:29:21.201Z,63.41
2023-04-03T07:30:21.203Z,63.41
2023-04-03T07:31:21.197Z,63.41
2023-04-03T07:32:21.205Z,63.41
2023-04-03T07:33:21.152Z,63.51
2023-04-03T07:34:21.151Z,63.71
2023-04-03T07:35:21.129Z,63.61
2023-04-03T07:36:21.150Z,63.61
2023-04-03T07:37:21.198Z,63.61
2023-04-03T07:38:21.103Z,63.61
2023-04-03T07:39:21.085Z,63.61
2023-04-03T07:40:21.090Z,63.61
2023-04-03T07:41:21.202Z,63.61
2023-04-03T07:42:21.052Z,63.51
2023-04-03T07:43:21.051Z,63.51
2023-04-03T07:44:21.037Z,63.51
2023-04-03T07:45:21.022Z,63.51
2023-04-03T07:46:21.054Z,63.51
2023-04-03T07:47:21.010Z,63.51
2023-04-03T07:48:20.985Z,63.61
2023-04-03T07:49:21.000Z,63.61
2023-04-03T07:50:20.966Z,63.51
2023-04-03T07:51:20.990Z,63.51
2023-04-03T07:52:20.946Z,63.51
2023-04-03T07:53:21.094Z,63.51
2023-04-03T07:54:23.273Z,63.51
2023-04-03T07:55:20.914Z,63.51
2023-04-03T07:56:20.900Z,63.51
2023-04-03T07:57:20.991Z,63.71
2023-04-03T07:58:20.901Z,63.71
2023-04-03T07:59:20.865Z,63.71
2023-04-03T08:00:24.957Z,63.71
2023-04-03T08:01:20.843Z,63.71
2023-04-03T08:02:20.866Z,63.71
2023-04-03T08:03:20.968Z,63.71
2023-04-03T08:04:20.959Z,63.81
2023-04-03T08:05:20.827Z,63.81
2023-04-03T08:06:29.423Z,63.81
2023-04-03T08:07:21.822Z,63.92
2023-04-03T08:08:21.587Z,63.92
2023-04-03T08:09:22.164Z,63.92
2023-04-03T08:10:20.783Z,64.02
2023-04-03T08:11:20.734Z,63.92
2023-04-03T08:12:20.726Z,63.92
2023-04-03T08:13:20.718Z,63.92
2023-04-03T08:14:20.701Z,63.92
2023-04-03T08:15:20.712Z,63.92
2023-04-03T08:16:20.730Z,63.92
2023-04-03T08:17:20.668Z,63.92
2023-04-03T08:18:20.658Z,63.92
2023-04-03T08:19:26.304Z,63.92
2023-04-03T08:20:21.669Z,63.92
2023-04-03T08:21:20.629Z,63.92
2023-04-03T08:22:20.618Z,63.92
2023-04-03T08:23:20.615Z,63.92
2023-04-03T08:24:20.619Z,63.92
2023-04-03T08:25:20.648Z,64.02
2023-04-03T08:26:20.576Z,64.02
2023-04-03T08:27:20.569Z,63.99
2023-04-03T08:28:20.548Z,63.99
2023-04-03T08:29:20.542Z,63.99
2023-04-03T08:30:20.556Z,63.99
2023-04-03T08:31:20.542Z,63.99
2023-04-03T08:32:20.505Z,63.89
2023-04-03T08:33:20.495Z,63.78
2023-04-03T08:34:20.523Z,63.65
2023-04-03T08:35:20.477Z,63.65
2023-04-03T08:36:20.537Z,63.65
2023-04-03T08:37:20.451Z,63.65
2023-04-03T08:38:20.447Z,63.55
2023-04-03T08:39:20.476Z,63.42
2023-04-03T08:40:20.432Z,63.32
2023-04-03T08:41:20.560Z,63.12
2023-04-03T08:42:20.405Z,62.92
2023-04-03T08:43:20.388Z,62.79
2023-04-03T08:44:20.408Z,62.68
2023-04-03T08:45:20.372Z,62.48
2023-04-03T08:46:20.729Z,62.48
2023-04-03T08:47:20.347Z,62.38
2023-04-03T08:48:20.331Z,62.28
2023-04-03T08:49:20.359Z,62.25
2023-04-03T08:50:20.342Z,62.25
2023-04-03T08:51:20.301Z,62.25
2023-04-03T08:52:20.339Z,62.15
2023-04-03T08:53:20.283Z,62.15
2023-04-03T08:54:20.271Z,62.05
2023-04-03T08:55:20.279Z,61.95
2023-04-03T08:56:20.246Z,62.05
2023-04-03T08:57:20.431Z,61.95
2023-04-03T08:58:20.256Z,61.95
2023-04-03T08:59:20.238Z,61.95
2023-04-03T09:00:20.220Z,61.95
2023-04-03T09:01:20.260Z,61.92
2023-04-03T09:02:20.189Z,61.82
2023-04-03T09:03:20.272Z,61.82
2023-04-03T09:04:20.260Z,61.82
2023-04-03T09:05:20.206Z,61.82
2023-04-03T09:06:20.145Z,61.82
2023-04-03T09:07:20.130Z,61.82
2023-04-03T09:08:20.121Z,61.82
2023-04-03T09:09:20.129Z,61.72
2023-04-03T09:10:20.178Z,61.72
2023-04-03T09:11:20.111Z,61.72
2023-04-03T09:12:20.076Z,61.72
2023-04-03T09:13:20.189Z,61.72
2023-04-03T09:14:20.053Z,61.72
2023-04-03T09:15:27.848Z,61.72
2023-04-03T09:16:21.110Z,61.72
2023-04-03T09:17:20.044Z,61.72
2023-04-03T09:18:20.049Z,61.72
2023-04-03T09:19:20.036Z,61.72
2023-04-03T09:20:21.092Z,61.61
2023-04-03T09:21:19.981Z,61.72
2023-04-03T09:22:19.968Z,61.75
2023-04-03T09:23:19.978Z,61.75
2023-04-03T09:24:19.953Z,61.75
2023-04-03T09:25:19.940Z,61.75
2023-04-03T09:26:19.943Z,61.95
2023-04-03T09:27:20.002Z,61.95
2023-04-03T09:28:19.921Z,61.95
2023-04-03T09:29:20.021Z,61.95
2023-04-03T09:30:19.879Z,61.95
2023-04-03T09:31:19.944Z,61.85
2023-04-03T09:32:19.867Z,61.95
2023-04-03T09:33:19.877Z,61.85
2023-04-03T09:34:19.877Z,61.85
2023-04-03T09:35:23.449Z,61.85
2023-04-03T09:36:20.874Z,61.85
2023-04-03T09:37:19.807Z,61.95
2023-04-03T09:38:19.801Z,62.05
2023-04-03T09:39:19.836Z,62.05
2023-04-03T09:40:19.772Z,62.05
2023-04-03T09:41:19.767Z,62.05
2023-04-03T09:42:19.777Z,62.05
2023-04-03T09:43:19.748Z,62.05
2023-04-03T09:44:19.730Z,62.15
2023-04-03T09:45:19.871Z,62.25
2023-04-03T09:46:21.050Z,62.25
2023-04-03T09:47:19.721Z,62.25
2023-04-03T09:48:19.774Z,62.25
2023-04-03T09:49:19.680Z,62.15
2023-04-03T09:50:19.688Z,62.15
2023-04-03T09:51:19.657Z,62.15
2023-04-03T09:52:19.646Z,62.15
2023-04-03T09:53:19.636Z,62.15
2023-04-03T09:54:19.662Z,62.15
2023-04-03T09:55:19.616Z,62.15
2023-04-03T09:56:19.603Z,62.15
2023-04-03T09:57:19.625Z,62.15
2023-04-03T09:58:19.585Z,62.15
2023-04-03T09:59:19.568Z,62.15
2023-04-03T10:00:19.597Z,62.18
2023-04-03T10:01:19.702Z,62.18
2023-04-03T10:02:19.550Z,62.18
2023-04-03T10:03:19.529Z,62.18
2023-04-03T10:04:19.579Z,62.18
2023-04-03T10:05:19.645Z,62.18
2023-04-03T10:06:19.520Z,62.18
2023-04-03T10:07:19.483Z,62.18
2023-04-03T10:08:19.478Z,62.28
2023-04-03T10:09:19.482Z,62.18
2023-04-03T10:10:19.481Z,62.18
2023-04-03T10:11:19.472Z,62.18
2023-04-03T10:12:19.434Z,62.28
2023-04-03T10:13:21.444Z,62.28
2023-04-03T10:14:19.447Z,62.28
2023-04-03T10:15:19.399Z,62.28
2023-04-03T10:16:19.403Z,62.28
2023-04-03T10:17:19.528Z,62.28
2023-04-03T10:18:24.726Z,62.28
2023-04-03T10:19:20.384Z,62.28
2023-04-03T10:20:19.341Z,62.28
2023-04-03T10:21:27.131Z,62.28
2023-04-03T10:22:20.321Z,62.28
2023-04-03T10:23:19.310Z,62.28
2023-04-03T10:24:19.307Z,62.38
2023-04-03T10:25:19.307Z,62.38
2023-04-03T10:26:19.278Z,62.28
2023-04-03T10:27:19.263Z,62.38
2023-04-03T10:28:19.256Z,62.38
2023-04-03T10:29:19.272Z,62.38
2023-04-03T10:30:19.231Z,62.48
2023-04-03T10:31:19.294Z,62.48
2023-04-03T10:32:19.309Z,62.48
2023-04-03T10:33:19.318Z,62.59
2023-04-03T10:34:19.216Z,62.59
2023-04-03T10:35:19.214Z,62.59
2023-04-03T10:36:19.166Z,62.59
2023-04-03T10:37:19.158Z,62.59
2023-04-03T10:38:19.148Z,62.68
2023-04-03T10:39:19.143Z,62.59
2023-04-03T10:40:19.147Z,62.59
2023-04-03T10:41:19.114Z,62.59
2023-04-03T10:42:19.109Z,62.59
2023-04-03T10:43:19.096Z,62.59
2023-04-03T10:44:19.080Z,62.59
2023-04-03T10:45:19.098Z,62.48
2023-04-03T10:46:19.104Z,62.48
2023-04-03T10:47:19.048Z,62.48
2023-04-03T10:48:19.094Z,62.48
2023-04-03T10:49:19.145Z,62.48
2023-04-03T10:50:19.015Z,62.48
2023-04-03T10:51:19.044Z,62.48
2023-04-03T10:52:18.996Z,62.48
2023-04-03T10:53:18.997Z,62.48
2023-04-03T10:54:19.007Z,62.41
2023-04-03T10:55:18.969Z,62.51
2023-04-03T10:56:18.953Z,62.51
2023-04-03T10:57:18.985Z,62.51
2023-04-03T10:58:18.957Z,62.51
2023-04-03T10:59:18.984Z,62.51
2023-04-03T11:00:18.912Z,62.51
2023-04-03T11:01:18.982Z,62.51
2023-04-03T11:02:18.963Z,62.41
2023-04-03T11:03:19.009Z,62.41
2023-04-03T11:04:18.906Z,62.41
2023-04-03T11:05:19.098Z,62.41
2023-04-03T11:06:18.852Z,62.51
2023-04-03T11:07:18.835Z,62.51
2023-04-03T11:08:18.860Z,62.51
2023-04-03T11:09:18.816Z,62.62
2023-04-03T11:10:18.808Z,62.62
2023-04-03T11:11:18.826Z,62.62
2023-04-03T11:12:18.785Z,62.62
2023-04-03T11:13:18.772Z,62.62
2023-04-03T11:14:18.760Z,62.62
2023-04-03T11:15:18.783Z,62.62
2023-04-03T11:16:18.806Z,62.71
2023-04-03T11:17:18.729Z,62.71
2023-04-03T11:18:18.721Z,62.71
2023-04-03T11:19:18.734Z,62.71
2023-04-03T11:20:18.700Z,62.71
2023-04-03T11:21:18.804Z,62.62
2023-04-03T11:22:18.690Z,62.62
2023-04-03T11:23:18.696Z,62.62
2023-04-03T11:24:18.667Z,62.62
2023-04-03T11:25:18.737Z,62.51
2023-04-03T11:26:18.642Z,62.51
2023-04-03T11:27:18.660Z,62.51
2023-04-03T11:28:18.610Z,62.51
2023-04-03T11:29:32.203Z,62.51
2023-04-03T11:30:19.600Z,62.51
2023-04-03T11:31:18.607Z,62.51
2023-04-03T11:32:18.565Z,62.51
2023-04-03T11:33:18.550Z,62.51
2023-04-03T11:34:18.562Z,62.51
2023-04-03T11:35:18.525Z,62.51
2023-04-03T11:36:25.475Z,62.51
2023-04-03T11:37:19.630Z,62.51
2023-04-03T11:38:18.555Z,62.51
2023-04-03T11:39:18.523Z,62.51
2023-04-03T11:40:18.474Z,62.51
2023-04-03T11:41:18.494Z,62.62
2023-04-03T11:42:18.490Z,62.62
2023-04-03T11:43:18.460Z,62.62
2023-04-03T11:44:18.444Z,62.62
2023-04-03T11:45:18.444Z,62.62
2023-04-03T11:46:18.434Z,62.62
2023-04-03T11:47:18.410Z,62.62
2023-04-03T11:48:24.544Z,62.62
2023-04-03T11:49:19.375Z,62.62
2023-04-03T11:50:18.380Z,62.62
2023-04-03T11:51:18.356Z,62.62
2023-04-03T11:52:18.365Z,62.62
2023-04-03T11:53:18.451Z,62.62
2023-04-03T11:54:18.325Z,62.62
2023-04-03T11:55:18.327Z,62.62
2023-04-03T11:56:18.299Z,62.62
2023-04-03T11:57:18.340Z,62.62
2023-04-03T11:58:18.333Z,62.62
2023-04-03T11:59:18.267Z,62.62
2023-04-03T12:00:18.252Z,62.92
2023-04-03T12:01:18.242Z,62.92
2023-04-03T12:02:18.265Z,62.82
2023-04-03T12:03:20.041Z,62.82
2023-04-03T12:04:18.289Z,62.82
2023-04-03T12:05:18.211Z,62.82
2023-04-03T12:06:18.187Z,62.92
2023-04-03T12:07:18.189Z,62.92
2023-04-03T12:08:18.172Z,63.02
2023-04-03T12:09:18.305Z,63.02
2023-04-03T12:10:28.587Z,63.02
2023-04-03T12:11:19.136Z,63.02
2023-04-03T12:12:18.122Z,62.92
2023-04-03T12:13:18.117Z,62.92
2023-04-03T12:14:18.149Z,62.92
2023-04-03T12:15:18.096Z,62.92
2023-04-03T12:16:18.122Z,62.92
2023-04-03T12:17:18.068Z,62.92
2023-04-03T12:18:18.081Z,62.92
2023-04-03T12:19:18.623Z,62.92
2023-04-03T12:20:18.041Z,62.92
2023-04-03T12:21:18.023Z,62.92
2023-04-03T12:22:18.020Z,62.92
2023-04-03T12:23:18.012Z,62.92
2023-04-03T12:24:18.022Z,62.92
2023-04-03T12:25:18.105Z,62.92
2023-04-03T12:26:17.991Z,62.82
2023-04-03T12:27:17.959Z,62.82
2023-04-03T12:28:17.948Z,62.92
2023-04-03T12:29:17.938Z,62.92
2023-04-03T12:30:17.930Z,62.92
2023-04-03T12:31:18.079Z,62.92
2023-04-03T12:32:17.918Z,62.92
2023-04-03T12:33:17.944Z,62.92
2023-04-03T12:34:17.888Z,62.82
2023-04-03T12:35:17.895Z,62.92
2023-04-03T12:36:17.873Z,62.92
2023-04-03T12:37:17.880Z,62.92
2023-04-03T12:38:17.870Z,62.92
2023-04-03T12:39:17.831Z,62.92
2023-04-03T12:40:17.827Z,62.92
2023-04-03T12:41:17.929Z,62.92
2023-04-03T12:42:17.837Z,63.02
2023-04-03T12:43:17.797Z,62.92
2023-04-03T12:44:17.788Z,62.92
2023-04-03T12:45:17.793Z,62.92
2023-04-03T12:46:17.888Z,62.95
2023-04-03T12:47:17.913Z,63.02
2023-04-03T12:48:17.742Z,62.92
2023-04-03T12:49:17.728Z,62.95
2023-04-03T12:50:17.714Z,62.92
2023-04-03T12:51:17.702Z,62.92
2023-04-03T12:52:17.694Z,62.92